createdAt,value
2023-01-05T00:01:40.411Z,0.55
2023-01-05T00:04:08.861Z,0.43
2023-01-05T00:06:39.482Z,0.57
2023-01-05T00:09:08.613Z,0.50
2023-01-05T00:11:54.504Z,0.50
2023-01-05T00:14:42.264Z,0.35
2023-01-05T00:17:30.267Z,0.45
2023-01-05T00:20:16.247Z,0.30
2023-01-05T00:22:48.677Z,0.60
2023-01-05T00:25:18.741Z,0.63
2023-01-05T00:27:50.646Z,0.55
2023-01-05T00:30:20.907Z,0.60
2023-01-05T00:32:49.321Z,0.60
2023-01-05T00:35:17.852Z,0.50
2023-01-05T00:37:47.250Z,0.47
2023-01-05T00:40:18.804Z,0.50
2023-01-05T00:42:47.508Z,0.73
2023-01-05T00:45:17.023Z,0.40
2023-01-05T00:47:45.383Z,0.77
2023-01-05T00:50:16.700Z,0.50
2023-01-05T00:52:48.575Z,0.60
2023-01-05T00:55:16.787Z,1.02
2023-01-05T00:57:45.362Z,0.70
2023-01-05T01:00:17.161Z,0.70
2023-01-05T01:02:45.706Z,0.50
2023-01-05T01:05:14.108Z,0.47
2023-01-05T01:07:42.205Z,0.30
2023-01-05T01:10:13.099Z,0.40
2023-01-05T01:15:09.599Z,0.40
2023-01-05T01:17:37.576Z,0.40
2023-01-05T01:20:07.958Z,0.40
2023-01-05T01:22:35.904Z,0.30
2023-01-05T01:25:04.109Z,0.38
2023-01-05T01:27:33.736Z,0.40
2023-01-05T01:30:01.918Z,0.40
2023-01-05T01:32:29.833Z,0.38
2023-01-05T01:34:57.848Z,0.25
2023-01-05T01:37:25.789Z,0.30
2023-01-05T01:39:53.811Z,0.30
2023-01-05T01:42:23.357Z,0.38
2023-01-05T01:44:58.964Z,0.28
2023-01-05T01:47:39.506Z,0.50
2023-01-05T01:50:12.761Z,0.32
2023-01-05T01:52:43.666Z,0.20
2023-01-05T01:55:12.547Z,0.30
2023-01-05T01:57:41.186Z,0.50
2023-01-05T02:00:14.679Z,0.43
2023-01-05T02:02:42.939Z,0.52
2023-01-05T02:05:13.697Z,0.38
2023-01-05T02:07:45.657Z,0.38
2023-01-05T02:10:14.941Z,0.30
2023-01-05T02:12:57.329Z,0.32
2023-01-05T02:15:37.527Z,0.43
2023-01-05T02:18:18.207Z,0.43
2023-01-05T02:21:21.773Z,0.50
2023-01-05T02:24:29.921Z,0.40
2023-01-05T02:27:26.662Z,0.30
2023-01-05T02:30:35.028Z,0.32
2023-01-05T02:33:14.715Z,0.32
2023-01-05T02:35:51.318Z,0.40
2023-01-05T02:38:24.876Z,0.30
2023-01-05T02:40:57.940Z,0.43
2023-01-05T02:43:26.855Z,0.30
2023-01-05T02:45:55.632Z,0.38
2023-01-05T02:48:25.538Z,0.38
2023-01-05T02:51:01.108Z,0.40
2023-01-05T02:53:33.076Z,0.40
2023-01-05T02:56:07.690Z,0.50
2023-01-05T02:58:40.588Z,0.30
2023-01-05T03:01:13.684Z,0.30
2023-01-05T03:03:47.830Z,0.40
2023-01-05T03:06:21.619Z,0.40
2023-01-05T03:08:52.490Z,0.30
2023-01-05T03:11:38.052Z,0.70
2023-01-05T03:14:12.521Z,0.28
2023-01-05T03:16:42.377Z,0.60
2023-01-05T03:19:35.638Z,0.60
2023-01-05T03:22:24.092Z,0.40
2023-01-05T03:25:09.813Z,0.60
2023-01-05T03:27:56.168Z,0.55
2023-01-05T03:30:47.950Z,0.60
2023-01-05T03:33:40.449Z,0.30
2023-01-05T03:36:13.053Z,0.22
2023-01-05T03:38:45.418Z,1.35
2023-01-05T03:41:16.309Z,0.82
2023-01-05T03:43:44.530Z,2.03
2023-01-05T03:46:15.896Z,0.73
2023-01-05T03:48:44.136Z,0.80
2023-01-05T03:51:15.618Z,0.65
2023-01-05T03:53:43.853Z,1.10
2023-01-05T03:56:11.728Z,0.90
2023-01-05T03:58:39.703Z,1.10
2023-01-05T04:01:08.506Z,0.90
2023-01-05T04:03:37.248Z,1.00
2023-01-05T04:06:05.333Z,1.00
2023-01-05T04:08:34.626Z,0.80
2023-01-05T04:11:13.200Z,1.38
2023-01-05T04:13:41.214Z,1.60
2023-01-05T04:16:09.704Z,1.40
2023-01-05T04:18:37.668Z,1.50
2023-01-05T04:21:06.248Z,1.58
2023-01-05T04:23:36.466Z,1.55
2023-01-05T04:26:05.538Z,1.55
2023-01-05T04:28:33.683Z,1.63
2023-01-05T04:31:01.622Z,1.17
2023-01-05T04:33:29.733Z,1.40
2023-01-05T04:35:57.650Z,1.73
2023-01-05T04:38:25.533Z,1.50
2023-01-05T04:40:54.773Z,1.20
2023-01-05T04:43:23.208Z,1.33
2023-01-05T04:45:51.209Z,1.48
2023-01-05T04:48:19.117Z,1.65
2023-01-05T04:50:52.961Z,1.80
2023-01-05T04:53:20.950Z,1.77
2023-01-05T04:55:48.841Z,1.05
2023-01-05T04:58:18.119Z,1.50
2023-01-05T05:00:46.210Z,1.67
2023-01-05T05:03:14.047Z,1.50
2023-01-05T05:05:41.874Z,1.60
2023-01-05T05:08:09.938Z,1.55
2023-01-05T05:10:37.903Z,1.63
2023-01-05T05:13:05.791Z,1.25
2023-01-05T05:15:35.099Z,1.48
2023-01-05T05:18:08.670Z,1.67
2023-01-05T05:20:37.357Z,2.13
2023-01-05T05:23:08.016Z,1.92
2023-01-05T05:25:35.973Z,2.72
2023-01-05T05:28:04.033Z,1.63
2023-01-05T05:30:31.992Z,1.52
2023-01-05T05:33:01.383Z,1.77
2023-01-05T05:35:29.242Z,1.70
2023-01-05T05:37:57.194Z,1.95
2023-01-05T05:40:26.219Z,1.88
2023-01-05T05:42:54.281Z,1.70
2023-01-05T05:45:22.270Z,1.83
2023-01-05T05:47:50.089Z,2.40
2023-01-05T05:50:19.427Z,1.33
2023-01-05T05:52:47.311Z,1.48
2023-01-05T05:55:15.228Z,1.58
2023-01-05T05:57:43.069Z,1.98
2023-01-05T06:00:12.213Z,2.80
2023-01-05T06:02:40.427Z,2.55
2023-01-05T06:05:09.399Z,1.75
2023-01-05T06:07:38.670Z,1.95
2023-01-05T06:10:07.791Z,1.67
2023-01-05T06:12:35.726Z,2.00
2023-01-05T06:15:03.929Z,1.27
2023-01-05T06:17:31.799Z,1.77
2023-01-05T06:20:04.561Z,2.03
2023-01-05T06:22:32.402Z,1.92
2023-01-05T06:25:01.690Z,2.40
2023-01-05T06:27:29.580Z,2.03
2023-01-05T06:29:57.436Z,1.80
2023-01-05T06:32:25.303Z,1.60
2023-01-05T06:34:53.276Z,2.00
2023-01-05T06:37:21.695Z,1.75
2023-01-05T06:39:49.601Z,2.33
2023-01-05T06:42:23.241Z,2.15
2023-01-05T06:44:51.701Z,1.40
2023-01-05T06:47:19.699Z,1.60
2023-01-05T06:49:47.586Z,1.65
2023-01-05T06:52:16.932Z,1.23
2023-01-05T06:54:45.562Z,1.42
2023-01-05T06:57:15.198Z,2.22
2023-01-05T06:59:44.395Z,2.28
2023-01-05T07:02:16.084Z,1.20
2023-01-05T07:04:44.267Z,3.45
2023-01-05T07:07:13.769Z,1.70
2023-01-05T07:09:42.320Z,1.80
2023-01-05T07:12:10.250Z,1.75
2023-01-05T07:14:38.387Z,1.95
2023-01-05T07:17:07.757Z,1.77
2023-01-05T07:19:38.576Z,1.60
2023-01-05T07:22:06.614Z,1.70
2023-01-05T07:24:34.578Z,1.67
2023-01-05T07:27:09.397Z,1.10
2023-01-05T07:29:40.401Z,1.95
2023-01-05T07:32:09.611Z,1.42
2023-01-05T07:34:37.575Z,1.40
2023-01-05T07:37:05.524Z,2.20
2023-01-05T07:39:33.589Z,1.80
2023-01-05T07:42:01.461Z,2.08
2023-01-05T07:44:32.414Z,1.63
2023-01-05T07:47:01.782Z,1.92
2023-01-05T07:49:31.175Z,1.70
2023-01-05T07:51:59.136Z,1.92
2023-01-05T07:54:27.388Z,1.50
2023-01-05T07:56:55.664Z,1.55
2023-01-05T07:59:23.588Z,1.88
2023-01-05T08:01:54.439Z,2.08
2023-01-05T08:04:22.355Z,2.05
2023-01-05T08:06:52.476Z,1.20
2023-01-05T08:09:52.431Z,1.48
2023-01-05T08:12:20.267Z,1.10
2023-01-05T08:14:51.213Z,1.80
2023-01-05T08:17:19.065Z,1.15
2023-01-05T08:19:47.219Z,1.77
2023-01-05T08:22:17.539Z,1.67
2023-01-05T08:24:45.470Z,1.73
2023-01-05T08:27:13.403Z,2.00
2023-01-05T08:29:41.291Z,1.70
2023-01-05T08:32:11.934Z,1.42
2023-01-05T08:34:39.891Z,1.48
2023-01-05T08:37:09.851Z,2.00
2023-01-05T08:39:39.078Z,2.17
2023-01-05T08:42:08.906Z,2.00
2023-01-05T08:44:36.756Z,1.73
2023-01-05T08:47:06.607Z,2.35
2023-01-05T08:49:35.610Z,1.38
2023-01-05T08:52:07.374Z,2.75
2023-01-05T08:54:35.251Z,1.92
2023-01-05T08:57:04.745Z,3.30
2023-01-05T08:59:32.645Z,1.95
2023-01-05T09:02:00.689Z,2.20
2023-01-05T09:04:28.789Z,1.92
2023-01-05T09:06:56.733Z,2.33
2023-01-05T09:09:25.126Z,1.65
2023-01-05T09:11:53.093Z,1.65
2023-01-05T09:14:22.288Z,1.77
2023-01-05T09:17:06.641Z,1.83
2023-01-05T09:19:35.695Z,1.50
2023-01-05T09:22:03.697Z,2.30
2023-01-05T09:24:31.628Z,1.77
2023-01-05T09:26:59.447Z,2.03
2023-01-05T09:29:28.695Z,1.65
2023-01-05T09:31:58.637Z,1.92
2023-01-05T09:34:29.365Z,1.60
2023-01-05T09:37:04.292Z,2.72
2023-01-05T09:39:33.575Z,1.75
2023-01-05T09:42:07.364Z,1.80
2023-01-05T09:44:38.135Z,2.05
2023-01-05T09:47:19.691Z,2.88
2023-01-05T09:49:50.272Z,2.22
2023-01-05T09:52:23.307Z,1.40
2023-01-05T09:54:51.455Z,1.45
2023-01-05T09:57:24.885Z,1.75
2023-01-05T10:00:00.581Z,1.77
2023-01-05T10:02:33.772Z,1.75
2023-01-05T10:05:04.837Z,2.38
2023-01-05T10:07:41.631Z,2.60
2023-01-05T10:10:37.754Z,2.15
2023-01-05T10:13:07.482Z,1.75
2023-01-05T10:15:43.291Z,1.38
2023-01-05T10:18:15.245Z,2.60
2023-01-05T10:20:51.796Z,2.53
2023-01-05T10:23:44.294Z,2.13
2023-01-05T10:26:21.180Z,2.03
2023-01-05T10:28:55.085Z,1.80
2023-01-05T10:31:45.842Z,2.22
2023-01-05T10:34:22.293Z,1.90
2023-01-05T10:37:22.459Z,2.03
2023-01-05T10:40:03.268Z,2.28
2023-01-05T10:42:43.506Z,1.92
2023-01-05T10:45:13.692Z,2.20
2023-01-05T10:47:45.153Z,2.05
2023-01-05T10:50:38.456Z,3.30
2023-01-05T10:53:11.758Z,2.20
2023-01-05T10:55:46.240Z,1.90
2023-01-05T10:58:25.450Z,1.65
2023-01-05T11:00:59.050Z,2.38
2023-01-05T11:04:14.932Z,2.17
2023-01-05T11:06:30.152Z,2.72
2023-01-05T11:09:09.790Z,2.67
2023-01-05T11:11:38.288Z,2.40
2023-01-05T11:14:06.742Z,2.08
2023-01-05T11:16:38.251Z,1.75
2023-01-05T11:19:13.796Z,2.30
2023-01-05T11:21:44.370Z,2.35
2023-01-05T11:24:29.522Z,2.30
2023-01-05T11:26:59.658Z,1.85
2023-01-05T11:29:27.601Z,2.05
2023-01-05T11:31:58.827Z,1.98
2023-01-05T11:34:37.642Z,2.38
2023-01-05T11:37:08.811Z,2.28
2023-01-05T11:39:42.004Z,4.28
2023-01-05T11:42:20.036Z,2.20
2023-01-05T11:44:53.326Z,1.70
2023-01-05T11:47:26.551Z,2.08
2023-01-05T11:50:09.534Z,2.25
2023-01-05T11:52:39.492Z,2.70
2023-01-05T11:55:33.465Z,1.98
2023-01-05T11:58:31.455Z,1.85
2023-01-05T12:01:23.022Z,1.83
2023-01-05T12:04:04.396Z,2.53
2023-01-05T12:07:01.166Z,2.45
2023-01-05T12:09:35.535Z,2.50
2023-01-05T12:12:33.321Z,3.08
2023-01-05T12:15:25.413Z,2.42
2023-01-05T12:18:01.657Z,3.03
2023-01-05T12:20:55.152Z,2.67
2023-01-05T12:23:42.295Z,2.47
2023-01-05T12:26:22.018Z,2.00
2023-01-05T12:35:51.058Z,2.30
2023-01-05T12:38:30.396Z,2.45
2023-01-05T12:41:14.172Z,2.15
2023-01-05T12:43:58.838Z,2.90
2023-01-05T12:46:36.785Z,1.90
2023-01-05T12:49:09.896Z,2.08
2023-01-05T12:51:44.586Z,1.90
2023-01-05T12:54:25.155Z,1.98
2023-01-05T12:56:59.391Z,2.28
2023-01-05T12:59:33.767Z,1.95
2023-01-05T13:02:21.024Z,2.03
2023-01-05T13:04:56.687Z,1.80
2023-01-05T13:07:35.313Z,2.20
2023-01-05T13:10:07.755Z,1.88
2023-01-05T13:15:15.053Z,2.72
2023-01-05T13:17:47.064Z,2.30
2023-01-05T13:20:27.069Z,3.08
2023-01-05T13:23:00.546Z,2.08
2023-01-05T13:25:31.332Z,2.53
2023-01-05T13:28:00.767Z,2.20
2023-01-05T13:30:31.861Z,2.42
2023-01-05T13:33:29.125Z,1.73
2023-01-05T13:36:10.615Z,2.95
2023-01-05T13:39:17.117Z,2.33
2023-01-05T13:42:17.036Z,2.50
2023-01-05T13:45:22.580Z,2.08
2023-01-05T13:48:12.574Z,2.20
2023-01-05T13:51:07.381Z,2.80
2023-01-05T13:53:39.509Z,2.25
2023-01-05T13:56:15.664Z,2.53
2023-01-05T13:58:46.297Z,2.45
2023-01-05T14:01:18.860Z,2.30
2023-01-05T14:03:53.560Z,1.70
2023-01-05T14:06:24.693Z,1.98
2023-01-05T14:08:57.395Z,2.70
2023-01-05T14:11:27.279Z,2.42
2023-01-05T14:13:58.344Z,2.20
2023-01-05T14:16:57.581Z,2.13
2023-01-05T14:19:52.065Z,2.05
2023-01-05T14:22:26.453Z,2.40
2023-01-05T14:24:55.942Z,2.40
2023-01-05T14:27:25.508Z,1.58
2023-01-05T14:30:22.238Z,1.85
2023-01-05T14:32:55.210Z,2.00
2023-01-05T14:35:31.971Z,2.47
2023-01-05T14:38:06.630Z,2.47
2023-01-05T14:40:40.888Z,2.08
2023-01-05T14:43:24.892Z,2.65
2023-01-05T14:46:06.546Z,2.00
2023-01-05T14:48:40.789Z,1.65
2023-01-05T14:51:23.663Z,2.60
2023-01-05T14:53:53.627Z,3.05
2023-01-05T14:56:26.134Z,1.50
2023-01-05T15:01:28.082Z,2.55
2023-01-05T15:04:05.099Z,3.85
2023-01-05T15:06:45.891Z,2.33
2023-01-05T15:09:34.184Z,2.80
2023-01-05T15:12:20.906Z,2.33
2023-01-05T15:15:03.088Z,2.17
2023-01-05T15:17:55.509Z,2.60
2023-01-05T15:20:50.335Z,2.30
2023-01-05T15:24:03.253Z,2.58
2023-01-05T15:26:51.339Z,2.22
2023-01-05T15:29:51.613Z,2.88
2023-01-05T15:32:22.837Z,2.85
2023-01-05T15:34:56.414Z,2.65
2023-01-05T15:37:34.790Z,2.80
2023-01-05T15:40:05.027Z,2.10
2023-01-05T15:42:39.853Z,1.98
2023-01-05T15:45:18.435Z,2.83
2023-01-05T15:47:48.533Z,1.83
2023-01-05T15:50:20.461Z,1.67
2023-01-05T15:52:57.689Z,2.33
2023-01-05T15:55:27.347Z,2.00
2023-01-05T15:57:56.870Z,2.10
2023-01-05T16:00:28.379Z,2.28
2023-01-05T16:02:56.539Z,2.10
2023-01-05T16:05:26.539Z,2.88
2023-01-05T16:11:29.731Z,2.65
2023-01-05T16:14:10.312Z,1.60
2023-01-05T16:16:52.625Z,2.33
2023-01-05T16:19:44.267Z,2.58
2023-01-05T16:22:16.172Z,2.10
2023-01-05T16:24:51.817Z,2.28
2023-01-05T16:27:22.256Z,2.47
2023-01-05T16:29:50.497Z,2.03
2023-01-05T16:32:30.060Z,2.25
2023-01-05T16:35:24.710Z,1.95
2023-01-05T16:38:16.437Z,2.63
2023-01-05T16:41:06.701Z,2.50
2023-01-05T16:43:41.477Z,2.40
2023-01-05T16:46:41.713Z,2.75
2023-01-05T16:49:37.348Z,2.65
2023-01-05T16:52:09.186Z,2.10
2023-01-05T16:54:41.468Z,2.60
2023-01-05T16:57:34.631Z,2.72
2023-01-05T17:00:25.246Z,2.67
2023-01-05T17:02:54.437Z,2.58
2023-01-05T17:05:27.436Z,2.60
2023-01-05T17:08:03.527Z,2.45
2023-01-05T17:10:31.860Z,2.78
2023-01-05T17:13:02.868Z,2.97
2023-01-05T17:15:34.516Z,2.58
2023-01-05T17:18:03.022Z,2.73
2023-01-05T17:20:36.248Z,2.72
2023-01-05T17:23:04.523Z,2.30
2023-01-05T17:25:35.025Z,3.25
2023-01-05T17:28:02.900Z,2.67
2023-01-05T17:30:32.210Z,2.45
2023-01-05T17:33:00.216Z,2.20
2023-01-05T17:35:29.818Z,2.80
2023-01-05T17:38:00.665Z,2.85
2023-01-05T17:40:29.299Z,2.47
2023-01-05T17:43:00.347Z,3.45
2023-01-05T17:45:28.406Z,2.42
2023-01-05T17:47:58.115Z,3.25
2023-01-05T17:50:28.920Z,3.38
2023-01-05T17:52:57.225Z,3.90
2023-01-05T17:55:26.048Z,3.20
2023-01-05T17:57:54.404Z,2.38
2023-01-05T18:00:24.343Z,2.00
2023-01-05T18:02:53.269Z,2.72
2023-01-05T18:05:23.851Z,1.80
2023-01-05T18:07:51.875Z,2.42
2023-01-05T18:10:22.210Z,1.83
2023-01-05T18:12:50.555Z,2.50
2023-01-05T18:15:19.039Z,2.28
2023-01-05T18:17:47.010Z,2.08
2023-01-05T18:20:17.711Z,1.95
2023-01-05T18:22:49.453Z,1.77
2023-01-05T18:25:17.455Z,2.53
2023-01-05T18:27:45.454Z,2.45
2023-01-05T18:30:14.606Z,1.90
2023-01-05T18:32:43.935Z,2.47
2023-01-05T18:35:12.479Z,2.22
2023-01-05T18:37:43.979Z,2.08
2023-01-05T18:40:14.092Z,2.70
2023-01-05T18:42:44.901Z,2.80
2023-01-05T18:45:20.028Z,2.13
2023-01-05T18:47:57.787Z,1.90
2023-01-05T18:50:26.387Z,2.10
2023-01-05T18:52:54.261Z,2.25
2023-01-05T18:55:23.690Z,2.72
2023-01-05T18:57:54.266Z,2.17
2023-01-05T19:00:22.216Z,2.55
2023-01-05T19:02:50.344Z,3.28
2023-01-05T19:05:21.328Z,2.17
2023-01-05T19:07:52.291Z,2.85
2023-01-05T19:10:23.082Z,2.17
2023-01-05T19:12:52.365Z,2.42
2023-01-05T19:15:20.469Z,2.35
2023-01-05T19:17:53.285Z,2.75
2023-01-05T19:20:23.693Z,2.60
2023-01-05T19:22:51.791Z,2.85
2023-01-05T19:25:20.241Z,3.17
2023-01-05T19:27:48.318Z,2.67
2023-01-05T19:30:19.976Z,2.55
2023-01-05T19:32:49.106Z,1.10
2023-01-05T19:35:17.247Z,3.03
2023-01-05T19:37:45.327Z,2.20
2023-01-05T19:40:14.865Z,2.40
2023-01-05T19:42:45.687Z,2.08
2023-01-05T19:45:15.408Z,2.55
2023-01-05T19:47:45.004Z,2.67
2023-01-05T19:50:13.846Z,1.80
2023-01-05T19:52:41.907Z,2.20
2023-01-05T19:55:11.955Z,2.53
2023-01-05T19:57:43.146Z,2.83
2023-01-05T20:00:13.612Z,2.05
2023-01-05T20:02:42.777Z,3.50
2023-01-05T20:05:17.104Z,3.53
2023-01-05T20:07:45.109Z,2.45
2023-01-05T20:10:14.497Z,3.20
2023-01-05T20:12:42.568Z,2.50
2023-01-05T20:15:14.389Z,2.25
2023-01-05T20:17:45.338Z,2.33
2023-01-05T20:20:15.029Z,2.17
2023-01-05T20:22:49.514Z,1.63
2023-01-05T20:25:17.635Z,2.08
2023-01-05T20:27:46.278Z,1.73
2023-01-05T20:30:14.854Z,1.50
2023-01-05T20:32:42.909Z,1.40
2023-01-05T20:35:14.472Z,1.40
2023-01-05T20:37:42.597Z,1.57
2023-01-05T20:40:13.685Z,1.45
2023-01-05T20:42:41.691Z,1.70
2023-01-05T20:45:09.905Z,1.50
2023-01-05T20:47:47.484Z,1.40
2023-01-05T20:50:17.841Z,1.27
2023-01-05T20:52:49.936Z,1.42
2023-01-05T20:55:19.260Z,1.65
2023-01-05T20:57:50.046Z,1.50
2023-01-05T21:00:21.178Z,1.48
2023-01-05T21:02:51.560Z,1.35
2023-01-05T21:05:21.384Z,1.92
2023-01-05T21:07:52.169Z,1.55
2023-01-05T21:10:20.431Z,1.45
2023-01-05T21:12:51.186Z,1.42
2023-01-05T21:15:19.325Z,1.23
2023-01-05T21:17:47.413Z,1.33
2023-01-05T21:20:15.922Z,1.45
2023-01-05T21:22:45.855Z,1.85
2023-01-05T21:25:16.643Z,1.40
2023-01-05T21:27:47.607Z,1.42
2023-01-05T21:30:17.887Z,1.55
2023-01-05T21:32:46.272Z,1.20
2023-01-05T21:35:14.454Z,1.08
2023-01-05T21:37:45.171Z,2.45
2023-01-05T21:40:14.862Z,1.52
2023-01-05T21:42:49.472Z,1.30
2023-01-05T21:45:21.124Z,1.30
2023-01-05T21:47:52.840Z,1.30
2023-01-05T21:50:35.549Z,1.30
2023-01-05T21:56:12.678Z,1.40
2023-01-05T21:58:40.767Z,1.40
2023-01-05T22:01:09.028Z,1.90
2023-01-05T22:03:37.245Z,1.30
2023-01-05T22:06:05.683Z,2.38
2023-01-05T22:08:33.837Z,1.30
2023-01-05T22:11:07.178Z,1.30
2023-01-05T22:13:37.761Z,1.35
2023-01-05T22:16:06.553Z,1.40
2023-01-05T22:18:34.844Z,1.27
2023-01-05T22:21:06.422Z,1.45
2023-01-05T22:23:34.491Z,1.73
2023-01-05T22:26:05.969Z,1.90
2023-01-05T22:28:35.422Z,1.50
2023-01-05T22:31:05.683Z,2.38
2023-01-05T22:33:34.354Z,1.67
2023-01-05T22:36:03.022Z,1.50
2023-01-05T22:38:34.000Z,1.73
2023-01-05T22:41:02.101Z,1.80
2023-01-05T22:43:31.581Z,1.42
2023-01-05T22:46:05.884Z,1.40
2023-01-05T22:48:34.731Z,1.65
2023-01-05T22:51:07.303Z,1.67
2023-01-05T22:56:06.649Z,1.85
2023-01-05T22:58:36.434Z,1.80
2023-01-05T23:01:09.296Z,2.00
2023-01-05T23:03:37.387Z,2.08
2023-01-05T23:06:06.118Z,2.95
2023-01-05T23:08:35.512Z,1.80
2023-01-05T23:11:06.283Z,1.92
2023-01-05T23:13:35.718Z,1.85
2023-01-05T23:16:03.932Z,1.95
2023-01-05T23:18:31.824Z,1.88
2023-01-05T23:21:02.941Z,1.70
2023-01-05T23:23:31.102Z,2.00
2023-01-05T23:25:58.995Z,2.05
2023-01-05T23:28:28.616Z,2.08
2023-01-05T23:31:02.384Z,2.40
2023-01-05T23:33:33.088Z,2.58
2023-01-05T23:36:01.947Z,2.33
2023-01-05T23:38:30.087Z,2.75
2023-01-05T23:40:58.883Z,2.33
2023-01-05T23:43:28.734Z,2.10
2023-01-05T23:46:03.972Z,2.90
2023-01-05T23:48:32.076Z,2.78
2023-01-05T23:51:00.035Z,2.88
2023-01-05T23:53:27.876Z,3.30
2023-01-05T23:56:06.057Z,3.42
2023-01-05T23:58:37.398Z,3.63
